createdAt,value
2023-04-14T00:02:39.524Z,8.80
2023-04-14T00:06:40.839Z,8.90
2023-04-14T00:10:41.993Z,9.00
2023-04-14T00:14:43.197Z,9.20
2023-04-14T00:18:44.746Z,9.20
2023-04-14T00:22:45.829Z,9.30
2023-04-14T00:26:46.985Z,9.30
2023-04-14T00:30:48.177Z,9.00
2023-04-14T00:34:49.331Z,8.90
2023-04-14T00:38:50.487Z,8.90
2023-04-14T00:42:51.673Z,8.80
2023-04-14T00:46:53.733Z,8.80
2023-04-14T00:50:54.930Z,8.70
2023-04-14T00:55:00.397Z,8.60
2023-04-14T00:59:02.540Z,8.60
2023-04-14T01:03:04.152Z,8.70
2023-04-14T01:07:05.593Z,8.60
2023-04-14T01:11:36.175Z,8.40
2023-04-14T01:15:46.929Z,8.40
2023-04-14T01:20:12.561Z,8.30
2023-04-14T01:24:40.443Z,8.20
2023-04-14T01:28:58.118Z,8.10
2023-04-14T01:33:04.488Z,8.00
2023-04-14T01:37:12.590Z,7.90
2023-04-14T01:41:19.595Z,7.90
2023-04-14T01:45:23.797Z,7.80
2023-04-14T01:49:27.981Z,7.70
2023-04-14T01:53:32.025Z,7.80
2023-04-14T01:57:35.066Z,7.80
2023-04-14T02:01:38.244Z,7.70
2023-04-14T02:05:40.913Z,7.70
2023-04-14T02:09:44.682Z,7.70
2023-04-14T02:13:47.627Z,7.60
2023-04-14T02:17:50.523Z,7.60
2023-04-14T02:21:52.770Z,7.60
2023-04-14T02:25:57.736Z,7.50
2023-04-14T02:30:01.311Z,7.50
2023-04-14T02:34:06.383Z,7.40
2023-04-14T02:38:20.211Z,7.50
2023-04-14T02:42:25.721Z,7.20
2023-04-14T02:46:30.779Z,7.10
2023-04-14T02:50:33.440Z,7.00
2023-04-14T02:54:37.200Z,7.00
2023-04-14T02:58:39.697Z,7.10
2023-04-14T03:02:42.996Z,7.20
2023-04-14T03:06:44.720Z,7.20
2023-04-14T03:10:48.430Z,7.00
2023-04-14T03:14:50.720Z,7.00
2023-04-14T03:18:53.708Z,6.70
2023-04-14T03:22:59.749Z,6.60
2023-04-14T03:27:27.412Z,6.60
2023-04-14T03:31:33.190Z,6.70
2023-04-14T03:35:36.895Z,6.70
2023-04-14T03:39:39.111Z,6.50
2023-04-14T03:43:41.974Z,6.60
2023-04-14T03:47:43.265Z,6.50
2023-04-14T03:51:47.556Z,6.70
2023-04-14T03:55:51.215Z,6.60
2023-04-14T03:59:53.169Z,6.60
2023-04-14T04:03:57.268Z,6.40
2023-04-14T04:08:02.414Z,6.10
2023-04-14T04:12:04.303Z,6.00
2023-04-14T04:16:06.792Z,6.00
2023-04-14T04:20:14.176Z,5.90
2023-04-14T04:24:17.541Z,6.00
2023-04-14T04:28:19.283Z,6.20
2023-04-14T04:32:20.819Z,6.10
2023-04-14T04:36:22.722Z,5.90
2023-04-14T04:40:23.904Z,5.90
2023-04-14T04:44:25.050Z,6.00
2023-04-14T04:48:26.226Z,5.80
2023-04-14T04:52:27.430Z,5.80
2023-04-14T04:56:28.586Z,5.90
2023-04-14T05:00:29.802Z,6.00
2023-04-14T05:04:31.721Z,6.10
2023-04-14T05:08:32.840Z,6.10
2023-04-14T05:12:34.135Z,6.10
2023-04-14T05:16:35.614Z,6.20
2023-04-14T05:20:36.767Z,6.30
2023-04-14T05:24:38.772Z,6.40
2023-04-14T05:28:40.915Z,6.60
2023-04-14T05:32:42.113Z,6.80
2023-04-14T05:36:43.273Z,6.80
2023-04-14T05:40:44.862Z,7.10
2023-04-14T05:44:46.033Z,7.30
2023-04-14T05:48:47.193Z,7.50
2023-04-14T05:52:49.446Z,7.60
2023-04-14T05:56:50.626Z,7.80
2023-04-14T06:00:51.758Z,7.80
2023-04-14T06:04:53.020Z,8.00
2023-04-14T06:08:54.323Z,8.10
2023-04-14T06:12:55.483Z,8.20
2023-04-14T06:16:56.730Z,8.20
2023-04-14T06:20:58.087Z,8.40
2023-04-14T06:24:59.335Z,8.50
2023-04-14T06:29:01.391Z,8.40
2023-04-14T06:33:04.073Z,8.60
2023-04-14T06:37:06.053Z,8.50
2023-04-14T06:41:07.134Z,8.70
2023-04-14T06:45:09.152Z,9.00
2023-04-14T06:49:10.376Z,9.10
2023-04-14T06:53:11.492Z,9.20
2023-04-14T06:57:12.645Z,9.30
2023-04-14T07:01:13.826Z,9.30
2023-04-14T07:05:16.616Z,9.60
2023-04-14T07:09:18.644Z,9.60
2023-04-14T07:13:19.750Z,10.00
2023-04-14T07:17:20.942Z,10.40
2023-04-14T07:21:22.062Z,10.40
2023-04-14T07:25:23.324Z,10.40
2023-04-14T07:29:26.377Z,10.40
2023-04-14T07:33:29.462Z,10.20
2023-04-14T07:37:30.739Z,10.30
2023-04-14T07:41:31.968Z,10.50
2023-04-14T07:45:33.188Z,10.60
2023-04-14T07:49:35.734Z,11.10
2023-04-14T07:53:39.107Z,11.10
2023-04-14T07:57:40.693Z,11.10
2023-04-14T08:01:42.675Z,11.30
2023-04-14T08:05:44.315Z,11.40
2023-04-14T08:09:45.482Z,11.50
2023-04-14T08:13:48.575Z,11.30
2023-04-14T08:17:49.816Z,11.70
2023-04-14T08:21:52.984Z,11.60
2023-04-14T08:25:54.186Z,12.00
2023-04-14T08:29:55.525Z,12.10
2023-04-14T08:33:56.711Z,12.30
2023-04-14T08:37:59.719Z,12.00
2023-04-14T08:42:01.562Z,12.00
2023-04-14T08:46:03.852Z,11.90
2023-04-14T08:50:08.031Z,12.40
2023-04-14T08:54:10.772Z,13.00
2023-04-14T08:58:12.095Z,14.00
2023-04-14T09:02:13.513Z,13.90
2023-04-14T09:06:17.339Z,14.10
2023-04-14T09:10:20.736Z,14.90
2023-04-14T09:14:23.100Z,15.40
2023-04-14T09:18:24.797Z,15.30
2023-04-14T09:22:26.969Z,16.10
2023-04-14T09:26:28.392Z,16.50
2023-04-14T09:30:31.160Z,16.60
2023-04-14T09:34:32.581Z,16.60
2023-04-14T09:38:36.911Z,16.90
2023-04-14T09:42:40.436Z,17.10
2023-04-14T09:46:56.923Z,17.70
2023-04-14T09:51:01.094Z,17.80
2023-04-14T09:55:06.557Z,17.80
2023-04-14T09:59:07.915Z,18.40
2023-04-14T10:03:09.172Z,19.10
2023-04-14T10:07:11.476Z,19.50
2023-04-14T10:11:15.790Z,20.00
2023-04-14T10:15:16.886Z,20.80
2023-04-14T10:19:18.858Z,20.70
2023-04-14T10:23:20.751Z,20.90
2023-04-14T10:27:22.422Z,20.60
2023-04-14T10:31:27.950Z,20.50
2023-04-14T10:35:32.906Z,20.50
2023-04-14T10:39:35.974Z,20.20
2023-04-14T10:43:38.006Z,20.20
2023-04-14T10:47:41.439Z,19.70
2023-04-14T10:51:44.139Z,19.50
2023-04-14T10:55:51.623Z,19.80
2023-04-14T10:59:55.215Z,18.90
2023-04-14T11:03:59.568Z,18.90
2023-04-14T11:08:03.370Z,19.10
2023-04-14T11:12:24.294Z,18.80
2023-04-14T11:16:28.578Z,19.40
2023-04-14T11:20:29.716Z,20.60
2023-04-14T11:24:33.978Z,20.90
2023-04-14T11:28:37.438Z,20.50
2023-04-14T11:32:54.230Z,19.50
2023-04-14T11:36:55.871Z,19.70
2023-04-14T11:40:57.439Z,19.70
2023-04-14T11:44:59.363Z,19.30
2023-04-14T11:49:00.895Z,19.60
2023-04-14T11:53:08.245Z,19.00
2023-04-14T11:57:11.413Z,19.80
2023-04-14T12:01:14.203Z,20.00
2023-04-14T12:05:21.610Z,20.20
2023-04-14T12:09:31.510Z,19.90
2023-04-14T12:13:36.455Z,19.30
2023-04-14T12:17:37.780Z,19.90
2023-04-14T12:21:38.935Z,20.10
2023-04-14T12:25:40.974Z,20.50
2023-04-14T12:29:43.639Z,20.50
2023-04-14T12:33:45.069Z,20.90
2023-04-14T12:37:50.102Z,20.60
2023-04-14T12:41:51.652Z,21.10
2023-04-14T12:45:52.845Z,22.10
2023-04-14T12:49:54.858Z,22.10
2023-04-14T12:53:59.862Z,21.50
2023-04-14T12:58:02.890Z,21.70
2023-04-14T13:02:04.847Z,21.50
2023-04-14T13:06:06.380Z,21.10
2023-04-14T13:10:07.949Z,21.00
2023-04-14T13:14:09.338Z,20.90
2023-04-14T13:18:10.661Z,21.90
2023-04-14T13:22:15.048Z,22.00
2023-04-14T13:26:16.224Z,21.80
2023-04-14T13:30:17.541Z,21.30
2023-04-14T13:34:18.712Z,21.50
2023-04-14T13:38:19.987Z,20.80
2023-04-14T13:42:21.249Z,20.40
2023-04-14T13:46:22.436Z,20.30
2023-04-14T13:50:23.646Z,20.10
2023-04-14T13:54:25.608Z,20.50
2023-04-14T13:58:26.933Z,20.60
2023-04-14T14:02:28.174Z,20.00
2023-04-14T14:06:30.509Z,20.00
2023-04-14T14:10:34.017Z,20.30
2023-04-14T14:14:35.113Z,20.40
2023-04-14T14:18:37.153Z,20.10
2023-04-14T14:22:38.508Z,20.30
2023-04-14T14:26:39.885Z,20.10
2023-04-14T14:30:41.054Z,19.90
2023-04-14T14:34:43.876Z,19.80
2023-04-14T14:38:45.122Z,20.00
2023-04-14T14:42:46.489Z,19.70
2023-04-14T14:46:48.171Z,19.10
2023-04-14T14:50:49.598Z,19.00
2023-04-14T14:54:53.334Z,19.10
2023-04-14T14:58:56.798Z,19.20
2023-04-14T15:02:58.705Z,19.30
2023-04-14T15:07:00.555Z,18.50
2023-04-14T15:11:01.845Z,18.00
2023-04-14T15:15:04.912Z,17.90
2023-04-14T15:19:06.049Z,17.80
2023-04-14T15:23:07.999Z,17.90
2023-04-14T15:27:09.199Z,17.70
2023-04-14T15:31:10.366Z,17.60
2023-04-14T15:35:11.428Z,17.50
2023-04-14T15:39:12.505Z,17.60
2023-04-14T15:43:15.466Z,17.80
2023-04-14T15:47:18.282Z,17.40
2023-04-14T15:51:19.454Z,17.40
2023-04-14T15:55:20.613Z,17.20
2023-04-14T15:59:23.618Z,17.50
2023-04-14T16:03:24.940Z,18.00
2023-04-14T16:07:29.537Z,18.50
2023-04-14T16:11:30.787Z,18.80
2023-04-14T16:15:32.478Z,18.80
2023-04-14T16:19:33.607Z,18.70
2023-04-14T16:23:35.000Z,18.70
2023-04-14T16:27:36.762Z,18.80
2023-04-14T16:31:37.941Z,19.20
2023-04-14T16:35:39.064Z,19.30
2023-04-14T16:39:41.441Z,19.00
2023-04-14T16:43:42.630Z,19.00
2023-04-14T16:47:43.784Z,18.90
2023-04-14T16:51:45.453Z,18.50
2023-04-14T16:55:46.534Z,18.00
2023-04-14T16:59:47.934Z,17.80
2023-04-14T17:03:49.754Z,18.10
2023-04-14T17:07:51.658Z,17.80
2023-04-14T17:11:54.016Z,17.50
2023-04-14T17:16:02.436Z,17.50
2023-04-14T17:19:58.675Z,17.10
2023-04-14T17:24:00.470Z,16.90
2023-04-14T17:28:03.806Z,16.90
2023-04-14T17:32:05.296Z,16.70
2023-04-14T17:36:08.277Z,16.60
2023-04-14T17:40:10.179Z,16.70
2023-04-14T17:44:11.336Z,16.60
2023-04-14T17:48:12.469Z,16.50
2023-04-14T17:52:14.123Z,16.40
2023-04-14T17:56:15.499Z,16.40
2023-04-14T18:00:16.922Z,16.20
2023-04-14T18:04:18.120Z,16.20
2023-04-14T18:08:19.237Z,16.20
2023-04-14T18:12:23.246Z,16.20
2023-04-14T18:16:24.472Z,15.90
2023-04-14T18:20:25.818Z,15.60
2023-04-14T18:28:30.668Z,15.10
2023-04-14T18:32:31.962Z,15.10
2023-04-14T18:36:33.104Z,15.10
2023-04-14T18:40:37.394Z,14.70
2023-04-14T18:44:38.589Z,14.50
2023-04-14T18:48:40.860Z,14.50
2023-04-14T18:52:42.009Z,14.30
2023-04-14T18:56:43.164Z,14.10
2023-04-14T19:00:45.227Z,13.90
2023-04-14T19:04:46.451Z,13.80
2023-04-14T19:08:47.805Z,13.70
2023-04-14T19:12:49.119Z,13.60
2023-04-14T19:16:50.826Z,13.40
2023-04-14T19:20:52.510Z,13.40
2023-04-14T19:24:55.244Z,13.30
2023-04-14T19:29:00.412Z,13.30
2023-04-14T19:33:01.800Z,13.20
2023-04-14T19:37:03.691Z,13.00
2023-04-14T19:41:05.062Z,12.90
2023-04-14T19:45:07.168Z,13.00
2023-04-14T19:49:10.311Z,12.60
2023-04-14T19:53:11.610Z,12.40
2023-04-14T19:57:13.678Z,12.30
2023-04-14T20:01:15.648Z,12.40
2023-04-14T20:05:18.060Z,12.10
2023-04-14T20:09:19.959Z,12.10
2023-04-14T20:13:22.697Z,12.00
2023-04-14T20:17:26.863Z,11.90
2023-04-14T20:21:31.981Z,12.00
2023-04-14T20:25:35.245Z,12.10
2023-04-14T20:29:36.908Z,11.90
2023-04-14T20:33:38.698Z,11.80
2023-04-14T20:37:41.068Z,11.60
2023-04-14T20:41:43.860Z,11.40
2023-04-14T20:45:48.018Z,11.30
2023-04-14T20:49:50.007Z,11.20
2023-04-14T20:53:52.160Z,11.20
2023-04-14T20:57:54.335Z,11.10
2023-04-14T21:01:56.505Z,11.00
2023-04-14T21:05:58.633Z,11.00
2023-04-14T21:10:02.489Z,10.90
2023-04-14T21:15:40.890Z,10.80
2023-04-14T21:18:11.732Z,10.80
2023-04-14T21:22:13.855Z,10.80
2023-04-14T21:26:21.407Z,10.60
2023-04-14T21:30:24.357Z,10.60
2023-04-14T21:34:26.900Z,10.70
2023-04-14T21:38:29.006Z,10.70
2023-04-14T21:42:32.599Z,10.60
2023-04-14T21:46:38.664Z,10.60
2023-04-14T21:50:40.195Z,10.50
2023-04-14T21:54:43.655Z,10.50
2023-04-14T21:58:47.783Z,10.50
2023-04-14T22:02:49.377Z,10.70
2023-04-14T22:06:52.003Z,10.50
2023-04-14T22:10:54.291Z,10.60
2023-04-14T22:14:55.794Z,10.40
2023-04-14T22:18:57.105Z,10.30
2023-04-14T22:22:58.547Z,10.30
2023-04-14T22:27:00.317Z,10.30
2023-04-14T22:31:02.415Z,10.20
2023-04-14T22:35:05.310Z,10.30
2023-04-14T22:39:06.687Z,10.40
2023-04-14T22:43:08.345Z,10.20
2023-04-14T22:47:09.670Z,10.10
2023-04-14T22:51:11.224Z,10.10
2023-04-14T22:55:12.569Z,10.10
2023-04-14T22:59:14.161Z,10.10
2023-04-14T23:03:16.526Z,9.90
2023-04-14T23:07:17.984Z,9.90
2023-04-14T23:11:20.775Z,9.80
2023-04-14T23:15:22.422Z,9.60
2023-04-14T23:19:23.712Z,9.50
2023-04-14T23:23:25.142Z,9.50
2023-04-14T23:27:27.829Z,9.50
2023-04-14T23:31:29.163Z,9.50
2023-04-14T23:35:30.516Z,9.60
2023-04-14T23:39:31.859Z,9.60
2023-04-14T23:43:33.398Z,9.50
2023-04-14T23:47:34.984Z,9.50
2023-04-14T23:51:37.274Z,9.50
2023-04-14T23:55:39.578Z,9.40
2023-04-14T23:59:40.956Z,9.30
